Time;durP1;ratioP1;P1;durP2;ratioP2;P2;SDS_P1;SDS_P2;PMS_P1;PMS_P2;Temp;Humidity;BMP_temperature;BMP_pressure;BME280_temperature;BME280_humidity;BME280_pressure;Samples;Min_cycle;Max_cycle;Signal;HPM_P1;HPM_P2
2023/09/11 00:00:36;;;;;;;25.75;20.13;;;;;;;20.23;100.00;101493.13;4889896;29;20048;-79
2023/09/11 00:03:04;;;;;;;24.67;19.70;;;;;;;20.21;100.00;101493.16;4885529;29;20065;-79
2023/09/11 00:05:31;;;;;;;28.70;20.73;;;;;;;20.19;100.00;101492.34;4903026;29;20479;-79
2023/09/11 00:07:59;;;;;;;26.48;20.40;;;;;;;20.17;100.00;101488.81;4915513;29;20064;-80
2023/09/11 00:10:27;;;;;;;34.13;20.92;;;;;;;20.16;100.00;101489.72;4878463;29;20551;-78
2023/09/11 00:12:55;;;;;;;29.55;19.95;;;;;;;20.13;100.00;101481.81;4926859;29;20063;-78
2023/09/11 00:15:22;;;;;;;26.52;20.42;;;;;;;20.11;100.00;101477.38;4894186;29;20052;-78
2023/09/11 00:17:49;;;;;;;27.58;21.35;;;;;;;20.09;100.00;101485.44;4906581;29;20053;-79
2023/09/11 00:20:17;;;;;;;26.40;20.48;;;;;;;20.07;100.00;101492.63;4900494;29;20048;-79
2023/09/11 00:22:44;;;;;;;27.02;20.55;;;;;;;20.05;100.00;101484.66;4903800;29;20060;-79
2023/09/11 00:25:12;;;;;;;30.92;20.83;;;;;;;20.04;100.00;101484.72;4871161;29;20052;-78
2023/09/11 00:27:40;;;;;;;27.00;21.02;;;;;;;20.03;100.00;101485.63;4902579;29;20052;-78
2023/09/11 00:30:08;;;;;;;27.77;21.50;;;;;;;20.01;100.00;101482.97;4915690;29;20503;-78
2023/09/11 00:32:36;;;;;;;25.83;20.42;;;;;;;19.99;100.00;101476.78;4888265;29;20547;-79
2023/09/11 00:35:04;;;;;;;30.00;23.38;;;;;;;19.98;100.00;101477.72;4929210;29;20055;-78
2023/09/11 00:37:31;;;;;;;27.60;21.48;;;;;;;19.97;100.00;101475.09;4901929;29;20063;-79
2023/09/11 00:39:59;;;;;;;28.65;21.77;;;;;;;19.94;100.00;101473.34;4880232;29;20052;-78
2023/09/11 00:42:26;;;;;;;30.33;24.35;;;;;;;19.94;100.00;101467.13;4911117;29;20573;-79
2023/09/11 00:44:54;;;;;;;28.55;22.35;;;;;;;19.91;100.00;101472.56;4921148;29;20052;-78
2023/09/11 00:47:21;;;;;;;32.08;22.15;;;;;;;19.91;100.00;101475.25;4904850;29;20052;-79
2023/09/11 00:49:50;;;;;;;32.33;25.00;;;;;;;19.89;100.00;101461.03;4913724;29;20056;-78
2023/09/11 00:52:18;;;;;;;31.55;22.75;;;;;;;19.88;100.00;101453.91;4910211;29;20053;-78
2023/09/11 00:54:46;;;;;;;28.17;22.65;;;;;;;19.84;100.00;101454.00;4854331;29;20534;-79
2023/09/11 00:57:17;;;;;;;31.30;26.13;;;;;;;19.82;100.00;101452.28;4880760;29;20048;-79
2023/09/11 00:59:46;;;;;;;29.80;23.48;;;;;;;19.80;100.00;101446.09;4904426;29;20064;-78
2023/09/11 01:02:14;;;;;;;31.30;21.55;;;;;;;19.78;100.00;101442.59;4909532;29;20079;-78
2023/09/11 01:04:43;;;;;;;27.48;21.33;;;;;;;19.77;100.00;101436.38;4887786;29;20052;-78
2023/09/11 01:07:12;;;;;;;33.53;23.17;;;;;;;19.76;100.00;101445.31;4905443;29;20068;-78
2023/09/11 01:09:41;;;;;;;28.48;21.45;;;;;;;19.76;100.00;101439.06;4909417;29;20048;-79
2023/09/11 01:12:08;;;;;;;31.75;21.17;;;;;;;19.75;100.00;101432.81;4879697;28;20042;-79
2023/09/11 01:14:40;;;;;;;26.98;20.52;;;;;;;19.74;100.00;101428.41;4904665;29;20056;-78
2023/09/11 01:17:24;;;;;;;30.42;22.17;;;;;;;19.73;100.00;101428.44;4907352;29;20492;-80
2023/09/11 01:20:32;;;;;;;26.42;22.27;;;;;;;19.71;100.00;101424.91;4910564;29;20063;-79
2023/09/11 01:23:20;;;;;;;27.85;20.67;;;;;;;19.68;100.00;101415.19;4913701;29;20063;-78
2023/09/11 01:26:06;;;;;;;24.48;19.75;;;;;;;19.67;100.00;101419.63;4871708;29;20040;-80
2023/09/11 01:28:55;;;;;;;29.90;19.90;;;;;;;19.67;100.00;101418.75;4911404;29;20676;-77
2023/09/11 01:31:24;;;;;;;28.92;21.40;;;;;;;19.66;100.00;101417.88;4900556;29;20056;-78
2023/09/11 01:33:59;;;;;;;24.85;18.90;;;;;;;19.66;100.00;101407.19;4881720;29;20048;-80
2023/09/11 01:36:27;;;;;;;24.58;20.05;;;;;;;19.65;100.00;101409.91;4891549;29;20052;-79
2023/09/11 01:38:56;;;;;;;23.42;19.00;;;;;;;19.66;100.00;101417.88;4910448;29;20040;-78
2023/09/11 01:41:35;;;;;;;26.98;20.10;;;;;;;19.66;100.00;101414.34;4885120;29;20056;-79
2023/09/11 01:44:16;;;;;;;21.42;17.15;;;;;;;19.65;100.00;101413.44;4912107;29;20047;-79
2023/09/11 01:46:45;;;;;;;;;;;;;;;19.65;100.00;101409.91;4901512;29;20063;-78
2023/09/11 01:49:15;;;;;;;22.98;18.55;;;;;;;19.63;100.00;101407.25;4925940;29;19923;-79
2023/09/11 01:51:44;;;;;;;22.30;18.77;;;;;;;19.63;100.00;101412.59;4901574;29;20056;-79
2023/09/11 01:54:15;;;;;;;24.75;18.55;;;;;;;19.61;100.00;101408.22;4910170;29;20055;-78
2023/09/11 01:56:43;;;;;;;30.40;18.88;;;;;;;19.59;100.00;101397.56;4924783;29;20056;-78
2023/09/11 01:59:14;;;;;;;23.45;17.48;;;;;;;19.59;100.00;101389.56;4862728;29;20044;-78
2023/09/11 02:01:45;;;;;;;23.65;18.55;;;;;;;19.58;100.00;101389.59;4905154;29;20063;-78
2023/09/11 02:04:12;;;;;;;;;;;;;;;19.56;100.00;101383.41;4907564;29;20055;-78
2023/09/11 02:06:40;;;;;;;20.98;17.67;;;;;;;19.54;100.00;101391.44;4896743;29;20322;-80
2023/09/11 02:09:07;;;;;;;29.08;19.60;;;;;;;19.53;100.00;101396.84;4906484;29;20043;-77
2023/09/11 02:11:35;;;;;;;24.08;17.77;;;;;;;19.53;100.00;101392.38;4885282;29;20079;-79
2023/09/11 02:14:02;;;;;;;26.02;17.80;;;;;;;19.52;100.00;101389.75;4877640;29;20055;-78
2023/09/11 02:16:31;;;;;;;23.77;18.30;;;;;;;19.51;100.00;101391.56;4870049;29;20067;-78
2023/09/11 02:18:59;;;;;;;28.67;18.60;;;;;;;19.51;100.00;101393.31;4897203;29;20048;-80
2023/09/11 02:21:27;;;;;;;27.73;18.25;;;;;;;19.50;100.00;101396.94;4915265;29;20055;-78
2023/09/11 02:23:55;;;;;;;20.80;18.20;;;;;;;19.46;100.00;101388.97;4910846;29;20060;-79
2023/09/11 02:26:22;;;;;;;26.77;21.70;;;;;;;19.44;100.00;101385.47;4869980;29;20067;-78
2023/09/11 02:28:49;;;;;;;27.88;18.15;;;;;;;19.41;100.00;101388.25;4869501;29;20134;-78
2023/09/11 02:31:18;;;;;;;25.38;18.70;;;;;;;19.39;100.00;101379.34;4896336;29;20495;-79
2023/09/11 02:33:45;;;;;;;25.20;18.25;;;;;;;19.39;100.00;101390.03;4892974;29;20056;-78
2023/09/11 02:36:13;;;;;;;22.90;18.23;;;;;;;19.38;100.00;101379.41;4876434;29;20048;-78
2023/09/11 02:38:40;;;;;;;23.15;19.10;;;;;;;19.36;100.00;101375.91;4876103;29;20048;-78
2023/09/11 02:41:08;;;;;;;25.73;19.42;;;;;;;19.36;100.00;101381.25;4904005;29;20048;-80
2023/09/11 02:43:37;;;;;;;24.48;18.20;;;;;;;19.34;100.00;101372.38;4874125;29;20053;-78
2023/09/11 02:46:05;;;;;;;25.23;18.02;;;;;;;19.33;100.00;101368.81;4884824;29;20124;-78
2023/09/11 02:48:32;;;;;;;25.90;18.30;;;;;;;19.31;100.00;101369.78;4898722;29;20052;-78
2023/09/11 02:51:00;;;;;;;21.95;18.38;;;;;;;19.28;100.00;101368.06;4912365;29;20439;-80
2023/09/11 02:53:29;;;;;;;26.00;18.23;;;;;;;19.27;100.00;101367.19;4883403;29;20052;-78
2023/09/11 02:55:56;;;;;;;25.42;18.85;;;;;;;19.26;100.00;101367.22;4897173;29;20739;-78
2023/09/11 02:58:23;;;;;;;25.38;18.30;;;;;;;19.24;100.00;101367.28;4891419;29;20052;-78
2023/09/11 03:00:51;;;;;;;27.13;18.50;;;;;;;19.22;100.00;101365.53;4873305;29;20558;-79
2023/09/11 03:03:18;;;;;;;27.58;18.30;;;;;;;19.22;100.00;101357.53;4919184;29;20066;-79
2023/09/11 03:05:55;;;;;;;23.45;18.48;;;;;;;19.21;100.00;101350.44;4896026;29;20059;-80
2023/09/11 03:08:24;;;;;;;20.85;17.75;;;;;;;19.19;100.00;101352.28;4899692;29;20048;-77
2023/09/11 03:10:54;;;;;;;24.25;18.58;;;;;;;19.18;100.00;101353.19;4911890;29;20060;-78
2023/09/11 03:13:22;;;;;;;19.98;17.00;;;;;;;19.17;100.00;101359.41;4883592;29;20168;-80
2023/09/11 03:15:49;;;;;;;27.08;20.88;;;;;;;19.15;100.00;101355.91;4878037;29;20420;-78
2023/09/11 03:18:17;;;;;;;23.95;17.48;;;;;;;19.13;100.00;101358.66;4882746;29;20060;-79
2023/09/11 03:20:44;;;;;;;27.48;17.20;;;;;;;19.13;100.00;101347.06;4885280;29;20060;-79
2023/09/11 03:23:13;;;;;;;24.98;18.10;;;;;;;19.13;100.00;101355.06;4918785;29;20069;-79
2023/09/11 03:25:45;;;;;;;20.58;16.92;;;;;;;19.12;100.00;101353.34;4899886;29;20052;-78
2023/09/11 03:28:13;;;;;;;24.65;18.38;;;;;;;19.11;100.00;101348.91;4906676;29;20048;-79
2023/09/11 03:30:41;;;;;;;24.25;17.83;;;;;;;19.11;100.00;101348.91;4869594;29;20106;-78
2023/09/11 03:33:08;;;;;;;22.17;17.05;;;;;;;19.08;100.00;101341.84;4886801;29;20072;-79
2023/09/11 03:35:37;;;;;;;22.35;17.45;;;;;;;19.07;100.00;101343.66;4899283;29;20547;-78
2023/09/11 03:38:05;;;;;;;19.98;16.90;;;;;;;19.06;100.00;101341.88;4916562;28;20055;-78
2023/09/11 03:40:32;;;;;;;21.83;16.63;;;;;;;19.04;100.00;101340.16;4923103;29;20052;-77
2023/09/11 03:43:00;;;;;;;24.88;18.15;;;;;;;19.02;100.00;101329.50;4918518;29;20056;-79
2023/09/11 03:45:29;;;;;;;27.02;18.52;;;;;;;19.01;100.00;101338.44;4855217;29;20056;-79
2023/09/11 03:47:56;;;;;;;24.45;17.35;;;;;;;18.99;100.00;101329.56;4894674;29;20059;-79
2023/09/11 03:50:24;;;;;;;27.05;17.50;;;;;;;18.98;100.00;101326.94;4896383;29;20055;-79
2023/09/11 03:52:51;;;;;;;21.92;16.33;;;;;;;18.97;100.00;101322.53;4910235;29;20048;-79
2023/09/11 03:55:19;;;;;;;23.50;17.33;;;;;;;18.96;100.00;101323.44;4900181;29;20523;-79
2023/09/11 03:57:47;;;;;;;23.08;16.73;;;;;;;18.94;100.00;101319.91;4909445;29;20040;-78
2023/09/11 04:00:15;;;;;;;20.58;16.95;;;;;;;18.92;100.00;101317.28;4873253;29;20044;-78
2023/09/11 04:02:42;;;;;;;24.58;16.73;;;;;;;18.92;100.00;101317.28;4888543;29;20043;-78
2023/09/11 04:05:10;;;;;;;22.52;18.40;;;;;;;18.90;100.00;101313.78;4906995;29;20074;-80
2023/09/11 04:07:38;;;;;;;23.33;16.42;;;;;;;18.87;100.00;101306.72;4896351;29;20047;-80
2023/09/11 04:10:06;;;;;;;22.00;16.95;;;;;;;18.86;100.00;101314.75;4909933;29;20055;-79
2023/09/11 04:12:35;;;;;;;23.35;17.05;;;;;;;18.84;100.00;101311.25;4898379;29;20064;-79
2023/09/11 04:15:03;;;;;;;20.20;16.55;;;;;;;18.82;100.00;101308.63;4882086;29;21142;-78
2023/09/11 04:17:30;;;;;;;24.95;19.00;;;;;;;18.82;100.00;101310.41;4854023;29;20060;-78
2023/09/11 04:19:59;;;;;;;23.15;17.67;;;;;;;18.79;100.00;101302.44;4886616;29;20061;-78
2023/09/11 04:22:27;;;;;;;21.98;16.90;;;;;;;18.78;100.00;101300.69;4881357;29;20059;-78
2023/09/11 04:24:54;;;;;;;26.17;17.83;;;;;;;18.75;100.00;101306.09;4879309;29;20055;-78
2023/09/11 04:27:22;;;;;;;30.20;16.88;;;;;;;18.73;100.00;101306.13;4895814;29;20519;-80
2023/09/11 04:29:49;;;;;;;23.45;17.42;;;;;;;18.73;100.00;101299.91;4881620;29;20060;-78
2023/09/11 04:32:18;;;;;;;24.75;17.15;;;;;;;18.71;100.00;101297.28;4857255;29;20044;-79
2023/09/11 04:34:45;;;;;;;25.40;17.42;;;;;;;18.70;100.00;101304.41;4920561;29;20048;-78
2023/09/11 04:37:13;;;;;;;22.10;16.73;;;;;;;18.70;100.00;101299.09;4871145;29;20059;-78
2023/09/11 04:39:41;;;;;;;21.90;16.60;;;;;;;18.69;100.00;101294.66;4877726;29;20062;-78
2023/09/11 04:42:09;;;;;;;23.77;17.08;;;;;;;18.68;100.00;101292.03;4927531;29;20044;-78
2023/09/11 04:44:36;;;;;;;23.88;17.67;;;;;;;18.67;100.00;101291.13;4895282;29;20083;-78
2023/09/11 04:47:06;;;;;;;25.90;18.15;;;;;;;18.65;100.00;101292.97;4908055;29;20056;-78
2023/09/11 04:49:33;;;;;;;27.13;17.38;;;;;;;18.64;100.00;101291.22;4881733;29;20052;-79
2023/09/11 04:52:03;;;;;;;24.02;17.23;;;;;;;18.62;100.00;101285.03;4880553;29;20277;-78
2023/09/11 04:54:31;;;;;;;21.92;16.88;;;;;;;18.63;100.00;101292.13;4906629;29;20067;-78
2023/09/11 04:56:59;;;;;;;24.17;17.38;;;;;;;18.63;100.00;101293.94;4907023;29;20056;-80
2023/09/11 04:59:28;;;;;;;28.95;17.48;;;;;;;18.62;100.00;101287.72;4916771;29;20059;-80
2023/09/11 05:01:55;;;;;;;26.20;17.95;;;;;;;18.62;100.00;101289.47;4922395;29;20059;-79
2023/09/11 05:04:23;;;;;;;20.02;17.52;;;;;;;18.64;100.00;101288.56;4886892;29;20079;-80
2023/09/11 05:06:51;;;;;;;30.25;19.10;;;;;;;18.64;100.00;101280.53;4889421;29;20508;-79
2023/09/11 05:09:18;;;;;;;25.88;17.42;;;;;;;18.66;100.00;101278.72;4865977;29;20052;-79
2023/09/11 05:11:48;;;;;;;22.67;15.60;;;;;;;18.68;100.00;101281.34;4875640;29;20052;-79
2023/09/11 05:14:16;;;;;;;22.92;15.95;;;;;;;18.70;100.00;101277.72;4887403;29;20048;-80
2023/09/11 05:16:43;;;;;;;30.00;16.38;;;;;;;18.73;100.00;101283.91;4870237;29;20064;-78
2023/09/11 05:19:11;;;;;;;22.83;15.52;;;;;;;18.76;100.00;101278.50;4853241;29;20064;-85
2023/09/11 05:21:38;;;;;;;23.40;15.38;;;;;;;18.78;100.00;101277.53;4892443;29;20060;-79
2023/09/11 05:24:06;;;;;;;23.58;15.25;;;;;;;18.82;100.00;101281.06;4895618;29;20051;-80
2023/09/11 05:26:34;;;;;;;23.20;15.85;;;;;;;18.85;100.00;101279.19;4903585;29;20052;-80
2023/09/11 05:29:01;;;;;;;20.30;14.98;;;;;;;18.88;100.00;101271.13;4890974;29;20048;-80
2023/09/11 05:31:29;;;;;;;21.00;15.35;;;;;;;18.93;100.00;101270.13;4931363;29;20060;-81
2023/09/11 05:33:58;;;;;;;21.17;14.70;;;;;;;18.97;100.00;101269.13;4843398;29;20059;-79
2023/09/11 05:36:25;;;;;;;23.35;15.85;;;;;;;19.01;100.00;101271.66;4919162;29;20044;-80
2023/09/11 05:38:53;;;;;;;22.98;14.75;;;;;;;19.04;100.00;101279.59;4916622;29;20420;-80
2023/09/11 05:41:21;;;;;;;20.45;14.40;;;;;;;19.09;100.00;101274.13;4899216;29;20528;-82
2023/09/11 05:43:48;;;;;;;19.98;14.18;;;;;;;19.13;100.00;101277.59;4881659;29;20047;-80
2023/09/11 05:46:16;;;;;;;23.17;14.35;;;;;;;19.17;100.00;101274.84;4903740;29;20067;-80
2023/09/11 05:48:44;;;;;;;29.00;14.98;;;;;;;19.23;100.00;101279.16;4865638;29;22848;-80
2023/09/11 05:51:13;;;;;;;26.38;14.68;;;;;;;19.29;100.00;101268.28;4889451;29;20063;-82
2023/09/11 05:53:41;;;;;;;28.55;13.65;;;;;;;19.36;100.00;101274.38;4919636;29;20071;-83
2023/09/11 05:56:09;;;;;;;22.15;14.20;;;;;;;19.42;100.00;101268.84;4910092;29;20048;-82
2023/09/11 05:58:37;;;;;;;23.52;13.70;;;;;;;19.46;100.00;101271.38;4900083;29;20070;-81
2023/09/11 06:01:05;;;;;;;26.85;13.68;;;;;;;19.51;100.00;101273.03;4896489;29;20095;-81
2023/09/11 06:03:32;;;;;;;24.75;13.73;;;;;;;19.55;100.00;101267.59;4890371;29;20068;-81
2023/09/11 06:06:00;;;;;;;23.02;13.93;;;;;;;19.62;100.00;101265.59;4891109;29;20722;-82
2023/09/11 06:08:29;;;;;;;23.35;13.43;;;;;;;19.65;100.00;101270.88;4908647;29;20047;-80
2023/09/11 06:10:57;;;;;;;27.20;14.50;;;;;;;19.71;100.00;101269.84;4895718;29;20051;-81
2023/09/11 06:13:24;;;;;;;23.35;13.38;;;;;;;19.77;100.00;101275.94;4882143;29;20051;-79
2023/09/11 06:15:52;;;;;;;24.75;13.55;;;;;;;19.81;100.00;101269.56;4894772;29;20060;-81
2023/09/11 06:18:20;;;;;;;21.08;12.88;;;;;;;19.88;100.00;101277.41;4904578;29;20051;-84
2023/09/11 06:20:47;;;;;;;29.73;13.43;;;;;;;19.94;100.00;101275.41;4879324;29;20043;-82
2023/09/11 06:23:15;;;;;;;23.63;13.45;;;;;;;19.99;100.00;101275.31;4907403;29;20051;-83
2023/09/11 06:25:43;;;;;;;23.60;13.65;;;;;;;20.05;100.00;101275.97;4897600;29;20052;-82
2023/09/11 06:28:10;;;;;;;23.38;13.35;;;;;;;20.12;100.00;101274.03;4893112;29;20056;-82
2023/09/11 06:30:37;;;;;;;29.95;14.02;;;;;;;20.17;100.00;101273.88;4912046;29;20091;-81
2023/09/11 06:33:05;;;;;;;24.45;13.88;;;;;;;20.23;100.00;101273.72;4874697;29;20063;-82
2023/09/11 06:35:32;;;;;;;26.80;13.90;;;;;;;20.28;100.00;101266.41;4860418;29;20826;-81
2023/09/11 06:37:59;;;;;;;19.80;13.35;;;;;;;20.33;100.00;101272.50;4911442;29;20487;-80
2023/09/11 06:40:27;;;;;;;28.05;13.38;;;;;;;20.39;100.00;101264.25;4896097;29;20052;-81
2023/09/11 06:42:54;;;;;;;26.52;12.57;;;;;;;20.43;100.00;101276.66;4890753;29;20051;-81
2023/09/11 06:45:22;;;;;;;23.60;13.57;;;;;;;20.49;100.00;101264.88;4889296;29;20051;-80
2023/09/11 06:47:49;;;;;;;21.42;12.45;;;;;;;20.57;100.00;101262.81;4902104;29;20065;-80
2023/09/11 06:50:17;;;;;;;21.02;13.35;;;;;;;20.67;100.00;101257.22;4873204;29;20048;-80
2023/09/11 06:52:46;;;;;;;24.58;15.15;;;;;;;20.76;100.00;101264.94;4911195;29;20052;-81
2023/09/11 06:55:13;;;;;;;19.75;13.40;;;;;;;20.89;100.00;101271.66;4894776;29;20063;-80
2023/09/11 06:57:57;;;;;;;20.98;12.10;;;;;;;21.12;100.00;101260.16;4915805;29;20055;-79
2023/09/11 07:00:26;;;;;;;21.67;12.80;;;;;;;21.30;100.00;101258.63;4891191;29;20064;-81
2023/09/11 07:02:55;;;;;;;19.00;11.68;;;;;;;21.43;100.00;101267.13;4898959;29;20531;-81
2023/09/11 07:05:25;;;;;;;19.80;12.02;;;;;;;21.52;100.00;101252.56;4903776;29;20075;-81
2023/09/11 07:07:53;;;;;;;21.58;12.35;;;;;;;21.60;100.00;101251.31;4888299;29;20051;-81
2023/09/11 07:10:21;;;;;;;20.92;12.15;;;;;;;21.68;100.00;101247.50;4899438;29;20059;-81
2023/09/11 07:13:07;;;;;;;23.33;11.70;;;;;;;21.97;100.00;101249.09;4904575;29;20056;-80
2023/09/11 07:15:35;;;;;;;22.27;11.75;;;;;;;22.31;100.00;101240.66;4879951;29;20948;-81
2023/09/11 07:18:02;;;;;;;29.75;11.98;;;;;;;22.60;100.00;101240.41;4896487;29;20415;-80
2023/09/11 07:20:30;;;;;;;20.58;11.02;;;;;;;22.89;100.00;101240.09;4895563;29;20059;-81
2023/09/11 07:22:57;;;;;;;16.25;11.48;;;;;;;23.20;100.00;101236.13;4824970;29;20056;-79
2023/09/11 07:25:25;;;;;;;29.13;10.75;;;;;;;23.51;100.00;101240.13;4863116;29;20519;-80
2023/09/11 07:27:54;;;;;;;24.70;10.98;;;;;;;23.78;100.00;101240.72;4907115;29;20467;-80
2023/09/11 07:30:21;;;;;;;23.20;10.93;;;;;;;24.08;100.00;101240.25;4908649;29;20443;-81
2023/09/11 07:32:52;;;;;;;19.60;10.27;;;;;;;24.28;100.00;101240.16;4878418;29;20048;-80
2023/09/11 07:35:25;;;;;;;18.60;10.15;;;;;;;24.51;100.00;101241.78;4926412;29;20500;-80
2023/09/11 07:37:53;;;;;;;24.20;11.43;;;;;;;24.69;100.00;101241.84;4871735;29;20163;-79
2023/09/11 07:40:21;;;;;;;23.80;10.50;;;;;;;24.94;100.00;101241.47;4897471;29;20052;-79
2023/09/11 07:42:49;;;;;;;21.98;10.45;;;;;;;25.21;100.00;101243.69;4894935;29;20044;-80
2023/09/11 07:45:18;;;;;;;25.27;10.40;;;;;;;25.41;100.00;101243.56;4907503;29;20055;-83
2023/09/11 07:47:46;;;;;;;26.95;10.25;;;;;;;25.58;100.00;101241.81;4903884;29;20052;-80
2023/09/11 07:50:13;;;;;;;20.65;9.85;;;;;;;25.62;100.00;101246.06;4915380;29;20067;-80
2023/09/11 07:52:41;;;;;;;20.00;8.80;;;;;;;25.65;100.00;101237.78;4861367;29;20063;-80
2023/09/11 07:55:09;;;;;;;22.80;9.07;;;;;;;25.77;100.00;101237.16;4897978;29;20642;-78
2023/09/11 07:57:39;;;;;;;15.70;9.32;;;;;;;25.91;100.00;101232.81;4889879;29;20045;-80
2023/09/11 08:00:08;;;;;;;26.35;9.68;;;;;;;26.03;100.00;101238.44;4893746;29;20044;-80
2023/09/11 08:02:36;;;;;;;22.67;9.77;;;;;;;26.18;100.00;101234.03;4892180;29;20519;-79
2023/09/11 08:05:04;;;;;;;22.48;9.57;;;;;;;26.32;100.00;101238.63;4906529;29;20067;-80
2023/09/11 08:07:31;;;;;;;18.38;9.23;;;;;;;26.42;100.00;101237.13;4910506;29;20063;-80
2023/09/11 08:09:59;;;;;;;17.58;9.80;;;;;;;26.60;100.00;101237.09;4877628;29;20060;-80
2023/09/11 08:12:27;;;;;;;18.38;8.88;;;;;;;26.76;100.00;101234.34;4908182;29;20131;-80
2023/09/11 08:14:56;;;;;;;24.02;9.52;;;;;;;26.91;100.00;101238.84;4907494;29;20063;-80
2023/09/11 08:17:23;;;;;;;24.45;9.48;;;;;;;27.02;100.00;101241.78;4912504;29;20051;-79
2023/09/11 08:19:51;;;;;;;20.17;10.05;;;;;;;27.14;100.00;101237.47;4904852;29;20510;-80
2023/09/11 08:22:18;;;;;;;17.45;9.52;;;;;;;27.27;100.00;101234.91;4899497;29;20056;-80
2023/09/11 08:24:45;;;;;;;24.67;9.63;;;;;;;27.36;100.00;101244.31;4849702;29;22889;-80
2023/09/11 08:27:13;;;;;;;25.10;9.25;;;;;;;27.46;100.00;101233.81;4921771;29;20056;-80
2023/09/11 08:29:40;;;;;;;21.65;9.98;;;;;;;27.57;100.00;101232.16;4913559;28;20183;-80
2023/09/11 08:32:08;;;;;;;22.10;9.07;;;;;;;27.67;100.00;101231.59;4900251;29;20423;-81
2023/09/11 08:34:35;;;;;;;19.38;8.93;;;;;;;27.66;100.00;101240.69;4902714;29;20066;-80
2023/09/11 08:37:04;;;;;;;16.73;7.90;;;;;;;27.74;100.00;101222.13;4926999;29;20044;-80
2023/09/11 08:39:32;;;;;;;21.90;8.43;;;;;;;27.84;100.00;101222.41;4912269;29;20059;-80
2023/09/11 08:42:01;;;;;;;13.63;8.40;;;;;;;27.92;100.00;101215.56;4877775;29;20495;-81
2023/09/11 08:44:29;;;;;;;20.93;8.30;;;;;;;28.05;100.00;101217.47;4896182;29;20052;-81
2023/09/11 08:47:00;;;;;;;13.10;7.75;;;;;;;28.15;100.00;101222.22;4904824;29;20307;-80
2023/09/11 08:49:33;;;;;;;19.10;8.93;;;;;;;28.27;100.00;101214.25;4915408;29;20064;-80
2023/09/11 08:52:03;;;;;;;13.98;7.53;;;;;;;28.32;100.00;101220.25;4901111;29;20060;-80
2023/09/11 08:54:38;;;;;;;17.50;7.78;;;;;;;28.31;100.00;101215.78;4913773;29;20114;-79
2023/09/11 08:57:06;;;;;;;21.45;7.65;;;;;;;28.29;100.00;101207.75;4889184;29;20074;-80
2023/09/11 08:59:37;;;;;;;18.77;8.05;;;;;;;28.31;100.00;101211.22;4893917;29;20052;-80
2023/09/11 09:02:07;;;;;;;16.83;7.68;;;;;;;28.32;99.80;101206.69;4902703;29;20053;-80
2023/09/11 09:04:36;;;;;;;12.85;6.97;;;;;;;28.31;99.75;101204.94;4870575;29;20056;-81
2023/09/11 09:07:08;;;;;;;14.27;7.30;;;;;;;28.32;99.03;101195.84;4921552;29;20041;-80
2023/09/11 09:09:36;;;;;;;14.40;6.50;;;;;;;28.31;98.34;101200.38;4908369;29;20075;-80
2023/09/11 09:12:04;;;;;;;15.60;7.10;;;;;;;28.30;98.29;101198.66;4869793;29;20048;-81
2023/09/11 09:14:36;;;;;;;15.10;6.40;;;;;;;28.27;98.30;101196.16;4889313;29;20423;-81
2023/09/11 09:17:07;;;;;;;12.90;6.68;;;;;;;28.26;98.00;101193.53;4923271;29;20055;-80
2023/09/11 09:19:34;;;;;;;16.45;6.30;;;;;;;28.23;98.58;101197.31;4894605;29;20048;-81
2023/09/11 09:22:05;;;;;;;12.75;6.88;;;;;;;28.25;98.53;101199.94;4910471;29;20052;-81
2023/09/11 09:24:33;;;;;;;20.83;7.38;;;;;;;28.25;98.34;101203.50;4929988;29;20060;-81
2023/09/11 09:27:04;;;;;;;16.10;6.10;;;;;;;28.24;98.47;101190.91;4871620;29;20064;-80
2023/09/11 09:29:36;;;;;;;16.33;6.40;;;;;;;28.23;98.39;101194.63;4903931;29;20051;-80
2023/09/11 09:32:06;;;;;;;18.40;6.47;;;;;;;28.22;98.12;101192.88;4906781;29;20769;-80
2023/09/11 09:34:36;;;;;;;16.27;6.75;;;;;;;28.21;96.97;101193.00;4881051;29;20147;-80
2023/09/11 09:37:04;;;;;;;;;;;;;;;28.20;96.69;101197.50;4910186;28;20545;-79
2023/09/11 09:39:33;;;;;;;15.70;6.15;;;;;;;28.18;96.84;101183.19;4911998;29;19934;-80
2023/09/11 09:42:04;;;;;;;17.27;5.50;;;;;;;28.22;96.76;101186.59;4872859;29;20052;-80
2023/09/11 09:44:32;;;;;;;15.18;5.80;;;;;;;28.20;96.06;101186.69;4909924;29;20512;-80
2023/09/11 09:47:12;;;;;;;17.67;6.28;;;;;;;28.21;94.12;101190.28;4889095;29;20060;-80
2023/09/11 09:49:50;;;;;;;12.93;5.55;;;;;;;28.22;94.22;101184.72;4918695;29;20052;-79
2023/09/11 09:52:20;;;;;;;18.27;6.05;;;;;;;28.20;93.78;101192.09;4899617;29;20052;-80
2023/09/11 09:54:54;;;;;;;11.65;5.60;;;;;;;28.21;94.85;101193.84;4893637;29;20063;-81
2023/09/11 09:57:25;;;;;;;18.52;6.03;;;;;;;28.19;94.38;101182.25;4905917;29;20055;-80
2023/09/11 09:59:58;;;;;;;17.92;6.22;;;;;;;28.21;95.37;101182.16;4882480;29;20618;-81
2023/09/11 10:02:29;;;;;;;17.08;5.80;;;;;;;28.23;95.16;101180.22;4906213;29;20052;-80
2023/09/11 10:05:08;;;;;;;15.38;5.60;;;;;;;28.26;95.98;101182.69;4923605;29;20067;-79
2023/09/11 10:07:39;;;;;;;17.85;5.85;;;;;;;28.27;96.33;101184.44;4888289;29;20535;-79
2023/09/11 10:10:27;;;;;;;12.02;5.97;;;;;;;28.31;96.99;101184.13;4908506;29;20051;-79
2023/09/11 10:13:02;;;;;;;11.50;5.72;;;;;;;28.34;97.21;101177.66;4907375;29;20051;-82
2023/09/11 10:15:31;;;;;;;18.50;6.30;;;;;;;28.37;96.14;101180.13;4862582;29;20500;-80
2023/09/11 10:18:00;;;;;;;14.50;6.15;;;;;;;28.37;95.57;101177.44;4897728;29;20059;-79
2023/09/11 10:20:28;;;;;;;9.23;5.63;;;;;;;28.41;96.30;101168.13;4889124;29;20503;-79
2023/09/11 10:23:02;;;;;;;15.70;5.25;;;;;;;28.45;94.52;101179.63;4880887;29;20293;-80
2023/09/11 10:25:43;;;;;;;13.45;5.70;;;;;;;28.42;94.02;101161.75;4905543;29;20060;-79
2023/09/11 10:28:17;;;;;;;14.57;5.50;;;;;;;28.45;94.35;101166.97;4904611;29;20836;-80
2023/09/11 10:30:52;;;;;;;10.50;5.32;;;;;;;28.43;92.52;101159.88;4856500;29;20061;-80
2023/09/11 10:33:35;;;;;;;11.80;5.47;;;;;;;28.41;91.85;101159.13;4916134;29;20499;-80
2023/09/11 10:36:14;;;;;;;15.50;5.53;;;;;;;28.42;91.67;101161.75;4912181;29;20800;-80
2023/09/11 10:38:44;;;;;;;17.02;5.25;;;;;;;28.46;92.09;101162.41;4891451;29;20032;-81
2023/09/11 10:41:13;;;;;;;10.68;5.53;;;;;;;28.49;91.95;101164.91;4889579;29;20187;-80
2023/09/11 10:43:40;;;;;;;16.20;6.38;;;;;;;28.51;91.86;101161.13;4880499;29;20062;-81
2023/09/11 10:46:21;;;;;;;13.00;5.75;;;;;;;28.52;91.19;101159.31;4871692;29;20069;-80
2023/09/11 10:48:53;;;;;;;11.60;5.72;;;;;;;28.55;92.06;101159.97;4910003;29;20067;-80
2023/09/11 10:51:23;;;;;;;10.07;5.50;;;;;;;28.60;91.98;101154.22;4893309;29;20060;-80
2023/09/11 10:53:50;;;;;;;9.75;5.50;;;;;;;28.66;91.69;101155.66;4902842;29;20060;-81
2023/09/11 10:56:19;;;;;;;17.77;5.80;;;;;;;28.66;90.21;101144.81;4897460;29;20047;-81
2023/09/11 10:58:51;;;;;;;12.50;5.95;;;;;;;28.66;90.09;101145.69;4897710;29;20053;-79
2023/09/11 11:01:22;;;;;;;9.32;5.03;;;;;;;28.68;88.43;101151.03;4849995;29;20060;-80
2023/09/11 11:03:52;;;;;;;13.32;5.45;;;;;;;28.68;88.50;101146.47;4905745;29;20052;-81
2023/09/11 11:06:23;;;;;;;10.02;5.82;;;;;;;28.72;88.47;101147.13;4897021;29;20056;-80
2023/09/11 11:08:51;;;;;;;;;;;;;;;28.74;86.70;101148.75;4904019;29;20044;-80
2023/09/11 11:11:24;;;;;;;11.20;5.88;;;;;;;28.75;88.20;101146.88;4905848;29;19931;-80
2023/09/11 11:14:12;;;;;;;15.27;5.68;;;;;;;28.80;87.97;101152.88;4890494;29;20040;-80
2023/09/11 11:16:54;;;;;;;14.38;5.70;;;;;;;28.87;87.81;101142.50;4861338;29;20951;-80